DLH859 EDDS-EDDH
Flight info
| Callsign | DLH859 |
|---|---|
| Flight time | 0h 59m |
| Altitude | 37000 |
| Route | OKIBA4B/25 OKIBA N851 RIMKI Z99 LOHRE DCT MASEK DCT ELNAT/N0431F380 P605 NOLGO NOLGO6A |
| Aircraft | A320/M-SDE3FGHIRWY/LB1 |
Departure
| Time | 2026-05-05 15:50 |
|---|---|
| Airport | Stuttgart Airport (EDDS) |
Arrival
| Time | 2026-05-05 16:49 |
|---|---|
| Airport | Hamburg Helmut Schmidt Airport (EDDH) |
| Time | Latitude | Longitude | Altitude | Speed | Heading |
|---|---|---|---|---|---|
| 2026-05-05 15:25 | 48.68784 | 9.19618 | 1306 ft | 0 kts | 164° |
| 2026-05-05 15:43 | 48.68783 | 9.19619 | 1305 ft | 1 kts | 164° |
| 2026-05-05 15:44 | 48.68773 | 9.19623 | 1305 ft | 3 kts | 164° |
| 2026-05-05 15:44 | 48.68742 | 9.19643 | 1303 ft | 6 kts | 144° |
| 2026-05-05 15:44 | 48.68737 | 9.19714 | 1300 ft | 9 kts | 73° |
| 2026-05-05 15:44 | 48.68757 | 9.19844 | 1297 ft | 17 kts | 72° |
| 2026-05-05 15:45 | 48.68822 | 9.19994 | 1295 ft | 16 kts | 52° |
| 2026-05-05 15:45 | 48.68864 | 9.20166 | 1292 ft | 19 kts | 74° |
| 2026-05-05 15:45 | 48.68904 | 9.20381 | 1286 ft | 23 kts | 73° |
| 2026-05-05 15:45 | 48.68952 | 9.20634 | 1279 ft | 27 kts | 73° |
| 2026-05-05 15:46 | 48.69006 | 9.20916 | 1274 ft | 29 kts | 74° |
| 2026-05-05 15:46 | 48.69063 | 9.21219 | 1273 ft | 31 kts | 74° |
| 2026-05-05 15:46 | 48.69115 | 9.21494 | 1259 ft | 28 kts | 74° |
| 2026-05-05 15:46 | 48.69172 | 9.21793 | 1255 ft | 30 kts | 72° |
| 2026-05-05 15:47 | 48.69232 | 9.22111 | 1245 ft | 32 kts | 74° |
| 2026-05-05 15:47 | 48.69296 | 9.22448 | 1241 ft | 34 kts | 74° |
| 2026-05-05 15:47 | 48.69362 | 9.22799 | 1230 ft | 35 kts | 74° |
| 2026-05-05 15:47 | 48.69430 | 9.23152 | 1225 ft | 34 kts | 73° |
| 2026-05-05 15:48 | 48.69491 | 9.23479 | 1241 ft | 29 kts | 74° |
| 2026-05-05 15:48 | 48.69538 | 9.23726 | 1267 ft | 20 kts | 73° |
| 2026-05-05 15:48 | 48.69575 | 9.23920 | 1271 ft | 23 kts | 74° |
| 2026-05-05 15:48 | 48.69602 | 9.24176 | 1271 ft | 25 kts | 115° |
| 2026-05-05 15:49 | 48.69541 | 9.24297 | 1251 ft | 0 kts | 163° |
| 2026-05-05 15:49 | 48.69482 | 9.24323 | 1239 ft | 12 kts | 166° |
| 2026-05-05 15:49 | 48.69384 | 9.24282 | 1192 ft | 13 kts | 252° |
| 2026-05-05 15:49 | 48.69361 | 9.24167 | 1194 ft | 12 kts | 254° |
| 2026-05-05 15:50 | 48.69292 | 9.23801 | 1201 ft | 72 kts | 254° |
| 2026-05-05 15:50 | 48.69092 | 9.22735 | 1223 ft | 136 kts | 254° |
| 2026-05-05 15:50 | 48.68797 | 9.21169 | 1475 ft | 163 kts | 253° |
| 2026-05-05 15:50 | 48.68459 | 9.19472 | 2024 ft | 174 kts | 253° |
| 2026-05-05 15:51 | 48.68096 | 9.17678 | 2663 ft | 181 kts | 253° |
| 2026-05-05 15:51 | 48.67732 | 9.15839 | 3087 ft | 192 kts | 252° |
| 2026-05-05 15:51 | 48.67344 | 9.13837 | 3545 ft | 201 kts | 253° |
| 2026-05-05 15:51 | 48.66973 | 9.11732 | 3976 ft | 217 kts | 261° |
| 2026-05-05 15:52 | 48.67305 | 9.09428 | 4461 ft | 238 kts | 301° |
| 2026-05-05 15:52 | 48.68419 | 9.07506 | 5262 ft | 246 kts | 313° |
| 2026-05-05 15:52 | 48.69920 | 9.06126 | 5966 ft | 268 kts | 336° |
| 2026-05-05 15:52 | 48.71740 | 9.05203 | 6669 ft | 280 kts | 338° |
| 2026-05-05 15:53 | 48.73663 | 9.04529 | 7541 ft | 292 kts | 355° |
| 2026-05-05 15:53 | 48.75703 | 9.04896 | 8390 ft | 299 kts | 9° |
| 2026-05-05 15:53 | 48.77757 | 9.05551 | 9240 ft | 304 kts | 10° |
| 2026-05-05 15:53 | 48.79835 | 9.06237 | 10023 ft | 310 kts | 10° |
| 2026-05-05 15:54 | 48.82030 | 9.06961 | 10300 ft | 334 kts | 10° |
| 2026-05-05 15:54 | 48.84353 | 9.07724 | 10827 ft | 347 kts | 10° |
| 2026-05-05 15:54 | 48.86731 | 9.08506 | 11560 ft | 352 kts | 10° |
| 2026-05-05 15:54 | 48.89132 | 9.09295 | 12347 ft | 355 kts | 10° |
| 2026-05-05 15:55 | 48.91557 | 9.10093 | 13177 ft | 359 kts | 9° |
| 2026-05-05 15:55 | 48.94009 | 9.10901 | 13917 ft | 362 kts | 9° |
| 2026-05-05 15:55 | 48.96481 | 9.11715 | 14569 ft | 366 kts | 11° |
| 2026-05-05 15:55 | 48.98985 | 9.12537 | 15217 ft | 370 kts | 11° |
| 2026-05-05 15:56 | 49.01517 | 9.13363 | 15868 ft | 374 kts | 11° |
| 2026-05-05 15:56 | 49.04083 | 9.14201 | 16596 ft | 378 kts | 11° |
| 2026-05-05 15:56 | 49.06668 | 9.15054 | 17361 ft | 383 kts | 12° |
| 2026-05-05 15:56 | 49.09287 | 9.15919 | 18120 ft | 388 kts | 12° |
| 2026-05-05 15:57 | 49.11939 | 9.16790 | 18785 ft | 392 kts | 11° |
| 2026-05-05 15:57 | 49.14654 | 9.17344 | 19428 ft | 396 kts | 5° |
| 2026-05-05 15:57 | 49.17408 | 9.17691 | 20032 ft | 399 kts | 4° |
| 2026-05-05 15:57 | 49.20183 | 9.18012 | 20596 ft | 402 kts | 4° |
| 2026-05-05 15:58 | 49.22984 | 9.18327 | 21144 ft | 405 kts | 4° |
| 2026-05-05 15:58 | 49.25808 | 9.18635 | 21702 ft | 409 kts | 4° |
| 2026-05-05 15:58 | 49.28661 | 9.18937 | 22256 ft | 412 kts | 4° |
| 2026-05-05 15:58 | 49.31532 | 9.19233 | 22812 ft | 416 kts | 4° |
| 2026-05-05 15:59 | 49.34432 | 9.19524 | 23364 ft | 419 kts | 4° |
| 2026-05-05 15:59 | 49.37356 | 9.19810 | 23835 ft | 422 kts | 4° |
| 2026-05-05 15:59 | 49.40294 | 9.20086 | 24331 ft | 424 kts | 4° |
| 2026-05-05 15:59 | 49.43244 | 9.20349 | 24817 ft | 426 kts | 4° |
| 2026-05-05 16:00 | 49.46208 | 9.20603 | 25257 ft | 428 kts | 4° |
| 2026-05-05 16:00 | 49.49191 | 9.20850 | 25682 ft | 431 kts | 4° |
| 2026-05-05 16:00 | 49.52203 | 9.21093 | 26090 ft | 434 kts | 4° |
| 2026-05-05 16:00 | 49.55214 | 9.21457 | 26479 ft | 436 kts | 11° |
| 2026-05-05 16:01 | 49.58194 | 9.22368 | 26777 ft | 438 kts | 13° |
| 2026-05-05 16:01 | 49.61162 | 9.23309 | 26825 ft | 429 kts | 13° |
| 2026-05-05 16:01 | 49.64033 | 9.24227 | 26837 ft | 416 kts | 13° |
| 2026-05-05 16:01 | 49.66850 | 9.25132 | 26839 ft | 413 kts | 13° |
| 2026-05-05 16:02 | 49.69657 | 9.26033 | 26838 ft | 411 kts | 13° |
| 2026-05-05 16:02 | 49.72460 | 9.26929 | 26843 ft | 411 kts | 13° |
| 2026-05-05 16:02 | 49.75259 | 9.27825 | 26842 ft | 411 kts | 13° |
| 2026-05-05 16:02 | 49.78058 | 9.28728 | 26833 ft | 411 kts | 13° |
| 2026-05-05 16:03 | 49.80852 | 9.29632 | 26838 ft | 411 kts | 13° |
| 2026-05-05 16:03 | 49.83652 | 9.30536 | 26832 ft | 411 kts | 13° |
| 2026-05-05 16:03 | 49.86455 | 9.31439 | 26839 ft | 412 kts | 13° |
| 2026-05-05 16:03 | 49.89257 | 9.32346 | 26834 ft | 412 kts | 13° |
| 2026-05-05 16:04 | 49.92024 | 9.33240 | 26832 ft | 412 kts | 13° |
| 2026-05-05 16:04 | 49.94829 | 9.34141 | 26829 ft | 411 kts | 13° |
| 2026-05-05 16:04 | 49.97662 | 9.35057 | 26823 ft | 411 kts | 13° |
| 2026-05-05 16:04 | 50.00466 | 9.35970 | 26822 ft | 411 kts | 13° |
| 2026-05-05 16:05 | 50.03271 | 9.36880 | 26823 ft | 411 kts | 13° |
| 2026-05-05 16:05 | 50.06036 | 9.37776 | 26814 ft | 412 kts | 12° |
| 2026-05-05 16:05 | 50.08878 | 9.38698 | 26812 ft | 412 kts | 12° |
| 2026-05-05 16:05 | 50.11648 | 9.39600 | 26811 ft | 412 kts | 12° |
| 2026-05-05 16:06 | 50.14456 | 9.40515 | 26802 ft | 413 kts | 12° |
| 2026-05-05 16:06 | 50.17264 | 9.41433 | 26803 ft | 413 kts | 13° |
| 2026-05-05 16:06 | 50.20073 | 9.42353 | 26803 ft | 413 kts | 13° |
| 2026-05-05 16:06 | 50.22891 | 9.43278 | 26799 ft | 413 kts | 13° |
| 2026-05-05 16:07 | 50.25704 | 9.44200 | 26802 ft | 413 kts | 12° |
| 2026-05-05 16:07 | 50.28519 | 9.45123 | 26796 ft | 413 kts | 12° |
| 2026-05-05 16:07 | 50.31333 | 9.46048 | 26792 ft | 413 kts | 12° |
| 2026-05-05 16:07 | 50.34149 | 9.46973 | 26796 ft | 413 kts | 12° |
| 2026-05-05 16:08 | 50.36961 | 9.47897 | 26794 ft | 414 kts | 12° |
| 2026-05-05 16:08 | 50.39781 | 9.48826 | 26794 ft | 414 kts | 12° |
| 2026-05-05 16:08 | 50.42597 | 9.49759 | 26792 ft | 413 kts | 12° |
| 2026-05-05 16:08 | 50.45409 | 9.50688 | 26789 ft | 414 kts | 12° |
| 2026-05-05 16:09 | 50.48224 | 9.51616 | 26794 ft | 414 kts | 12° |
| 2026-05-05 16:09 | 50.51041 | 9.52547 | 26783 ft | 413 kts | 12° |
| 2026-05-05 16:09 | 50.53860 | 9.53478 | 26780 ft | 414 kts | 12° |
| 2026-05-05 16:09 | 50.56673 | 9.54409 | 26783 ft | 414 kts | 12° |
| 2026-05-05 16:10 | 50.59492 | 9.55343 | 26777 ft | 414 kts | 12° |
| 2026-05-05 16:10 | 50.62307 | 9.56274 | 26781 ft | 414 kts | 12° |
| 2026-05-05 16:10 | 50.65130 | 9.57213 | 26775 ft | 414 kts | 12° |
| 2026-05-05 16:10 | 50.67947 | 9.58156 | 26777 ft | 414 kts | 12° |
| 2026-05-05 16:11 | 50.70767 | 9.59105 | 26774 ft | 414 kts | 12° |
| 2026-05-05 16:11 | 50.79303 | 9.61325 | 26802 ft | 416 kts | 6° |
| 2026-05-05 16:12 | 50.82177 | 9.61809 | 26788 ft | 414 kts | 5° |
| 2026-05-05 16:12 | 50.87899 | 9.62750 | 26778 ft | 413 kts | 6° |
| 2026-05-05 16:13 | 50.96481 | 9.64363 | 26778 ft | 414 kts | 6° |
| 2026-05-05 16:13 | 50.99340 | 9.64933 | 26773 ft | 415 kts | 6° |
| 2026-05-05 16:13 | 51.02203 | 9.65505 | 26771 ft | 415 kts | 6° |
| 2026-05-05 16:14 | 51.07946 | 9.66654 | 26778 ft | 416 kts | 6° |
| 2026-05-05 16:14 | 51.13695 | 9.67782 | 26785 ft | 416 kts | 6° |
| 2026-05-05 16:15 | 51.19448 | 9.68901 | 26791 ft | 417 kts | 5° |
| 2026-05-05 16:15 | 51.25214 | 9.69953 | 26799 ft | 418 kts | 4° |
| 2026-05-05 16:16 | 51.30994 | 9.70848 | 26798 ft | 417 kts | 4° |
| 2026-05-05 16:16 | 51.36774 | 9.71740 | 26805 ft | 417 kts | 4° |
| 2026-05-05 16:17 | 51.42553 | 9.72668 | 26820 ft | 418 kts | 4° |
| 2026-05-05 16:17 | 51.45444 | 9.73143 | 26818 ft | 418 kts | 4° |
| 2026-05-05 16:18 | 51.51227 | 9.74144 | 26820 ft | 418 kts | 5° |
| 2026-05-05 16:18 | 51.54113 | 9.74690 | 26820 ft | 418 kts | 5° |
| 2026-05-05 16:18 | 51.59897 | 9.75817 | 26828 ft | 418 kts | 5° |
| 2026-05-05 16:19 | 51.62782 | 9.76378 | 26830 ft | 418 kts | 5° |
| 2026-05-05 16:19 | 51.65674 | 9.76934 | 26837 ft | 418 kts | 5° |
| 2026-05-05 16:19 | 51.71449 | 9.78046 | 26845 ft | 418 kts | 5° |
| 2026-05-05 16:20 | 51.77218 | 9.79138 | 26845 ft | 417 kts | 5° |
| 2026-05-05 16:20 | 51.82988 | 9.80238 | 26848 ft | 417 kts | 5° |
| 2026-05-05 16:21 | 51.88750 | 9.81338 | 26865 ft | 417 kts | 4° |
| 2026-05-05 16:22 | 51.97373 | 9.83010 | 26870 ft | 415 kts | 4° |
| 2026-05-05 16:22 | 52.03111 | 9.84127 | 26867 ft | 415 kts | 4° |
| 2026-05-05 16:23 | 52.08802 | 9.85236 | 26877 ft | 415 kts | 4° |
| 2026-05-05 16:23 | 52.11669 | 9.85795 | 26892 ft | 414 kts | 4° |
| 2026-05-05 16:23 | 52.17389 | 9.86911 | 26900 ft | 413 kts | 4° |
| 2026-05-05 16:24 | 52.20238 | 9.87469 | 26902 ft | 413 kts | 4° |
| 2026-05-05 16:24 | 52.23090 | 9.88026 | 26901 ft | 412 kts | 4° |
| 2026-05-05 16:24 | 52.27762 | 9.89576 | 26901 ft | 414 kts | 12° |
| 2026-05-05 16:25 | 52.30545 | 9.90801 | 26897 ft | 414 kts | 12° |
| 2026-05-05 16:25 | 52.36100 | 9.93255 | 26902 ft | 413 kts | 12° |
| 2026-05-05 16:25 | 52.38877 | 9.94485 | 26906 ft | 413 kts | 12° |
| 2026-05-05 16:26 | 52.44309 | 9.96891 | 26491 ft | 397 kts | 12° |
| 2026-05-05 16:26 | 52.49577 | 9.99222 | 25631 ft | 388 kts | 12° |
| 2026-05-05 16:27 | 52.52180 | 10.00373 | 25186 ft | 386 kts | 13° |
| 2026-05-05 16:27 | 52.54768 | 10.01519 | 24748 ft | 384 kts | 13° |
| 2026-05-05 16:27 | 52.57343 | 10.02662 | 24316 ft | 382 kts | 13° |
| 2026-05-05 16:27 | 52.59897 | 10.03800 | 23906 ft | 379 kts | 13° |
| 2026-05-05 16:28 | 52.62433 | 10.04935 | 23489 ft | 377 kts | 13° |
| 2026-05-05 16:28 | 52.64959 | 10.06065 | 22998 ft | 375 kts | 13° |
| 2026-05-05 16:28 | 52.67464 | 10.07188 | 22574 ft | 371 kts | 13° |
| 2026-05-05 16:28 | 52.69940 | 10.08299 | 22171 ft | 367 kts | 13° |
| 2026-05-05 16:29 | 52.72394 | 10.09399 | 21775 ft | 364 kts | 13° |
| 2026-05-05 16:29 | 52.74832 | 10.10492 | 21384 ft | 361 kts | 13° |
| 2026-05-05 16:29 | 52.77255 | 10.11494 | 20998 ft | 357 kts | 8° |
| 2026-05-05 16:29 | 52.79715 | 10.11859 | 20618 ft | 352 kts | 359° |
| 2026-05-05 16:30 | 52.82159 | 10.11927 | 20251 ft | 350 kts | 359° |
| 2026-05-05 16:30 | 52.84582 | 10.12003 | 19887 ft | 347 kts | 358° |
| 2026-05-05 16:30 | 52.86992 | 10.12083 | 19517 ft | 345 kts | 358° |
| 2026-05-05 16:30 | 52.89386 | 10.12164 | 19149 ft | 343 kts | 359° |
| 2026-05-05 16:31 | 52.91766 | 10.12244 | 18796 ft | 340 kts | 359° |
| 2026-05-05 16:31 | 52.94121 | 10.12323 | 18442 ft | 338 kts | 359° |
| 2026-05-05 16:31 | 52.96468 | 10.12402 | 18078 ft | 336 kts | 359° |
| 2026-05-05 16:31 | 52.98796 | 10.12479 | 17675 ft | 334 kts | 359° |
| 2026-05-05 16:32 | 53.01110 | 10.12553 | 17277 ft | 332 kts | 359° |
| 2026-05-05 16:32 | 53.03414 | 10.12629 | 16884 ft | 330 kts | 359° |
| 2026-05-05 16:32 | 53.05704 | 10.12705 | 16497 ft | 328 kts | 359° |
| 2026-05-05 16:32 | 53.07982 | 10.12778 | 16115 ft | 327 kts | 359° |
| 2026-05-05 16:33 | 53.10248 | 10.12850 | 15738 ft | 326 kts | 359° |
| 2026-05-05 16:33 | 53.12509 | 10.12904 | 15451 ft | 321 kts | 355° |
| 2026-05-05 16:33 | 53.14688 | 10.12359 | 15170 ft | 315 kts | 345° |
| 2026-05-05 16:33 | 53.16817 | 10.11545 | 14834 ft | 313 kts | 345° |
| 2026-05-05 16:34 | 53.18929 | 10.10709 | 14504 ft | 311 kts | 344° |
| 2026-05-05 16:34 | 53.21026 | 10.09869 | 14178 ft | 309 kts | 344° |
| 2026-05-05 16:34 | 53.23115 | 10.09029 | 13861 ft | 308 kts | 345° |
| 2026-05-05 16:34 | 53.25190 | 10.08197 | 13517 ft | 306 kts | 344° |
| 2026-05-05 16:35 | 53.27237 | 10.07287 | 13154 ft | 302 kts | 335° |
| 2026-05-05 16:35 | 53.28947 | 10.05375 | 12807 ft | 295 kts | 310° |
| 2026-05-05 16:35 | 53.30234 | 10.02725 | 12422 ft | 293 kts | 305° |
| 2026-05-05 16:35 | 53.31440 | 9.99986 | 12040 ft | 292 kts | 304° |
| 2026-05-05 16:36 | 53.32637 | 9.97257 | 11707 ft | 290 kts | 304° |
| 2026-05-05 16:36 | 53.33827 | 9.94544 | 11350 ft | 288 kts | 304° |
| 2026-05-05 16:36 | 53.35011 | 9.91846 | 10991 ft | 287 kts | 304° |
| 2026-05-05 16:36 | 53.36176 | 9.89191 | 10641 ft | 286 kts | 304° |
| 2026-05-05 16:37 | 53.37353 | 9.86511 | 10209 ft | 287 kts | 304° |
| 2026-05-05 16:37 | 53.38540 | 9.83808 | 9742 ft | 290 kts | 304° |
| 2026-05-05 16:37 | 53.39740 | 9.81077 | 9233 ft | 290 kts | 304° |
| 2026-05-05 16:37 | 53.40910 | 9.78394 | 8710 ft | 281 kts | 304° |
| 2026-05-05 16:38 | 53.42052 | 9.75757 | 8234 ft | 278 kts | 304° |
| 2026-05-05 16:38 | 53.43175 | 9.73145 | 7755 ft | 276 kts | 304° |
| 2026-05-05 16:38 | 53.44290 | 9.70537 | 7287 ft | 276 kts | 304° |
| 2026-05-05 16:38 | 53.45408 | 9.67914 | 6828 ft | 276 kts | 304° |
| 2026-05-05 16:39 | 53.46501 | 9.65303 | 6361 ft | 269 kts | 304° |
| 2026-05-05 16:39 | 53.47547 | 9.62772 | 5867 ft | 259 kts | 304° |
| 2026-05-05 16:39 | 53.48549 | 9.60337 | 5425 ft | 249 kts | 304° |
| 2026-05-05 16:39 | 53.49511 | 9.57975 | 4950 ft | 242 kts | 304° |
| 2026-05-05 16:40 | 53.50439 | 9.55666 | 4457 ft | 236 kts | 304° |
| 2026-05-05 16:40 | 53.51332 | 9.53383 | 4054 ft | 230 kts | 304° |
| 2026-05-05 16:40 | 53.52185 | 9.51092 | 3994 ft | 232 kts | 297° |
| 2026-05-05 16:40 | 53.52488 | 9.48446 | 4001 ft | 236 kts | 265° |
| 2026-05-05 16:41 | 53.51895 | 9.45889 | 4000 ft | 239 kts | 231° |
| 2026-05-05 16:41 | 53.50585 | 9.44233 | 3999 ft | 237 kts | 199° |
| 2026-05-05 16:41 | 53.48973 | 9.44001 | 4000 ft | 235 kts | 166° |
| 2026-05-05 16:41 | 53.47552 | 9.45241 | 4003 ft | 232 kts | 133° |
| 2026-05-05 16:42 | 53.46747 | 9.47519 | 3791 ft | 226 kts | 101° |
| 2026-05-05 16:42 | 53.46810 | 9.50079 | 3445 ft | 220 kts | 69° |
| 2026-05-05 16:42 | 53.47363 | 9.52466 | 3088 ft | 220 kts | 76° |
| 2026-05-05 16:42 | 53.47561 | 9.54977 | 3003 ft | 217 kts | 83° |
| 2026-05-05 16:43 | 53.47673 | 9.57531 | 3001 ft | 220 kts | 84° |
| 2026-05-05 16:43 | 53.47778 | 9.60094 | 3004 ft | 220 kts | 84° |
| 2026-05-05 16:43 | 53.47879 | 9.62659 | 3007 ft | 221 kts | 84° |
| 2026-05-05 16:43 | 53.47979 | 9.65236 | 3003 ft | 218 kts | 84° |
| 2026-05-05 16:44 | 53.48102 | 9.67677 | 3001 ft | 201 kts | 76° |
| 2026-05-05 16:44 | 53.48601 | 9.69742 | 3002 ft | 185 kts | 54° |
| 2026-05-05 16:44 | 53.49394 | 9.71389 | 3005 ft | 180 kts | 49° |
| 2026-05-05 16:44 | 53.50198 | 9.72994 | 3006 ft | 179 kts | 50° |
| 2026-05-05 16:45 | 53.50994 | 9.74587 | 3006 ft | 178 kts | 49° |
| 2026-05-05 16:45 | 53.51792 | 9.76186 | 3004 ft | 179 kts | 50° |
| 2026-05-05 16:45 | 53.52593 | 9.77792 | 2921 ft | 179 kts | 50° |
| 2026-05-05 16:45 | 53.53390 | 9.79389 | 2723 ft | 178 kts | 50° |
| 2026-05-05 16:46 | 53.54183 | 9.80981 | 2499 ft | 178 kts | 49° |
| 2026-05-05 16:46 | 53.54958 | 9.82537 | 2291 ft | 167 kts | 50° |
| 2026-05-05 16:46 | 53.55678 | 9.83984 | 2044 ft | 156 kts | 50° |
| 2026-05-05 16:46 | 53.56348 | 9.85332 | 1830 ft | 144 kts | 51° |
| 2026-05-05 16:47 | 53.56969 | 9.86580 | 1639 ft | 135 kts | 50° |
| 2026-05-05 16:47 | 53.57563 | 9.87775 | 1460 ft | 132 kts | 51° |
| 2026-05-05 16:47 | 53.58144 | 9.88946 | 1303 ft | 130 kts | 50° |
| 2026-05-05 16:47 | 53.58720 | 9.90107 | 1109 ft | 130 kts | 51° |
| 2026-05-05 16:48 | 53.59299 | 9.91274 | 921 ft | 129 kts | 51° |
| 2026-05-05 16:48 | 53.59879 | 9.92444 | 728 ft | 131 kts | 50° |
| 2026-05-05 16:48 | 53.60456 | 9.93610 | 571 ft | 130 kts | 51° |
| 2026-05-05 16:48 | 53.61024 | 9.94770 | 380 ft | 129 kts | 51° |
| 2026-05-05 16:49 | 53.61613 | 9.95939 | 202 ft | 128 kts | 51° |
| 2026-05-05 16:49 | 53.62172 | 9.97070 | 50 ft | 127 kts | 52° |
| 2026-05-05 16:49 | 53.62621 | 9.97978 | 42 ft | 59 kts | 50° |
| 2026-05-05 16:49 | 53.62763 | 9.98282 | 43 ft | 23 kts | 73° |
| 2026-05-05 16:50 | 53.62726 | 9.98389 | 45 ft | 5 kts | 148° |
| 2026-05-05 16:50 | 53.62685 | 9.98441 | 46 ft | 14 kts | 131° |
| 2026-05-05 16:50 | 53.62709 | 9.98592 | 47 ft | 15 kts | 50° |
| 2026-05-05 16:50 | 53.62781 | 9.98739 | 47 ft | 17 kts | 50° |
| 2026-05-05 16:51 | 53.62864 | 9.98906 | 47 ft | 19 kts | 50° |
| 2026-05-05 16:51 | 53.62954 | 9.99088 | 47 ft | 21 kts | 50° |
| 2026-05-05 16:51 | 53.63049 | 9.99284 | 47 ft | 22 kts | 51° |
| 2026-05-05 16:51 | 53.63141 | 9.99507 | 46 ft | 24 kts | 55° |
| 2026-05-05 16:52 | 53.63216 | 9.99657 | 48 ft | 10 kts | 50° |
| 2026-05-05 16:52 | 53.63222 | 9.99670 | 48 ft | 0 kts | 50° |
| 2026-05-05 16:52 | 53.63233 | 9.99689 | 48 ft | 7 kts | 44° |
| 2026-05-05 16:52 | 53.63276 | 9.99761 | 47 ft | 11 kts | 46° |
| 2026-05-05 16:53 | 53.63341 | 9.99888 | 48 ft | 17 kts | 50° |
| 2026-05-05 16:53 | 53.63426 | 10.00061 | 48 ft | 20 kts | 53° |
| 2026-05-05 16:53 | 53.63447 | 10.00238 | 48 ft | 10 kts | 85° |
| 2026-05-05 16:53 | 53.63450 | 10.00306 | 48 ft | 3 kts | 85° |
| 2026-05-05 16:54 | 53.63451 | 10.00316 | 48 ft | 0 kts | 85° |